createdAt,value
2022-09-27T00:00:23.537Z,56.38
2022-09-27T00:01:23.756Z,56.38
2022-09-27T00:02:23.975Z,56.38
2022-09-27T00:03:24.068Z,56.38
2022-09-27T00:04:24.223Z,56.28
2022-09-27T00:05:24.418Z,56.41
2022-09-27T00:06:24.576Z,56.41
2022-09-27T00:07:24.739Z,56.38
2022-09-27T00:08:24.900Z,56.41
2022-09-27T00:09:25.050Z,56.41
2022-09-27T00:10:25.230Z,56.38
2022-09-27T00:11:25.419Z,56.41
2022-09-27T00:12:25.621Z,56.38
2022-09-27T00:13:25.771Z,56.41
2022-09-27T00:14:25.921Z,56.41
2022-09-27T00:15:26.112Z,56.38
2022-09-27T00:16:26.387Z,56.41
2022-09-27T00:17:26.532Z,56.41
2022-09-27T00:18:27.609Z,56.41
2022-09-27T00:19:26.823Z,56.41
2022-09-27T00:20:26.985Z,56.41
2022-09-27T00:21:27.175Z,56.38
2022-09-27T00:22:27.347Z,56.41
2022-09-27T00:23:27.510Z,56.41
2022-09-27T00:24:27.655Z,56.41
2022-09-27T00:25:27.855Z,56.41
2022-09-27T00:26:28.006Z,56.41
2022-09-27T00:27:28.215Z,56.41
2022-09-27T00:28:28.369Z,56.41
2022-09-27T00:29:28.559Z,56.41
2022-09-27T00:30:28.715Z,56.41
2022-09-27T00:31:28.939Z,56.41
2022-09-27T00:32:29.087Z,56.41
2022-09-27T00:33:29.258Z,56.41
2022-09-27T00:34:29.417Z,56.41
2022-09-27T00:35:29.600Z,56.41
2022-09-27T00:36:29.758Z,56.41
2022-09-27T00:37:29.968Z,56.51
2022-09-27T00:38:30.132Z,56.41
2022-09-27T00:39:30.289Z,56.51
2022-09-27T00:40:30.511Z,56.51
2022-09-27T00:41:30.620Z,56.51
2022-09-27T00:42:30.794Z,56.41
2022-09-27T00:43:30.953Z,56.51
2022-09-27T00:44:31.140Z,56.51
2022-09-27T00:45:31.332Z,56.51
2022-09-27T00:46:31.553Z,56.51
2022-09-27T00:47:31.673Z,56.51
2022-09-27T00:48:31.842Z,56.51
2022-09-27T00:49:32.002Z,56.51
2022-09-27T00:50:32.151Z,56.51
2022-09-27T00:51:32.348Z,56.51
2022-09-27T00:52:32.509Z,56.51
2022-09-27T00:53:32.674Z,56.51
2022-09-27T00:54:32.836Z,56.51
2022-09-27T00:55:33.024Z,56.51
2022-09-27T00:56:33.181Z,56.61
2022-09-27T00:57:33.383Z,56.51
2022-09-27T00:58:33.548Z,56.51
2022-09-27T00:59:33.702Z,56.51
2022-09-27T01:00:33.860Z,56.51
2022-09-27T01:01:34.062Z,56.51
2022-09-27T01:02:34.262Z,56.51
2022-09-27T01:03:34.386Z,56.61
2022-09-27T01:04:34.542Z,56.51
2022-09-27T01:05:34.726Z,56.61
2022-09-27T01:06:34.918Z,56.61
2022-09-27T01:07:35.109Z,56.61
2022-09-27T01:08:35.294Z,56.61
2022-09-27T01:09:35.444Z,56.51
2022-09-27T01:10:35.638Z,56.61
2022-09-27T01:11:35.806Z,56.51
2022-09-27T01:12:35.953Z,56.61
2022-09-27T01:13:36.397Z,56.61
2022-09-27T01:14:36.311Z,56.61
2022-09-27T01:15:36.538Z,56.61
2022-09-27T01:16:36.690Z,56.61
2022-09-27T01:17:36.841Z,56.61
2022-09-27T01:18:37.042Z,56.61
2022-09-27T01:19:37.209Z,56.61
2022-09-27T01:20:37.353Z,56.51
2022-09-27T01:21:37.552Z,56.54
2022-09-27T01:22:37.705Z,56.61
2022-09-27T01:23:37.958Z,56.61
2022-09-27T01:24:38.067Z,56.63
2022-09-27T01:25:38.276Z,56.51
2022-09-27T01:26:38.439Z,56.63
2022-09-27T01:27:38.605Z,56.63
2022-09-27T01:28:38.766Z,56.63
2022-09-27T01:29:38.924Z,56.63
2022-09-27T01:30:39.110Z,56.63
2022-09-27T01:31:39.292Z,56.63
2022-09-27T01:32:39.487Z,56.63
2022-09-27T01:33:39.636Z,56.74
2022-09-27T01:34:39.838Z,56.63
2022-09-27T01:35:40.004Z,56.63
2022-09-27T01:36:40.153Z,56.63
2022-09-27T01:37:40.359Z,56.63
2022-09-27T01:38:40.508Z,56.63
2022-09-27T01:39:40.703Z,56.63
2022-09-27T01:40:40.946Z,56.63
2022-09-27T01:41:41.089Z,56.74
2022-09-27T01:42:41.261Z,56.74
2022-09-27T01:43:41.443Z,56.74
2022-09-27T01:44:41.590Z,56.74
2022-09-27T01:45:41.777Z,56.63
2022-09-27T01:46:42.030Z,56.74
2022-09-27T01:47:42.163Z,56.63
2022-09-27T01:48:42.311Z,56.74
2022-09-27T01:49:42.508Z,56.74
2022-09-27T01:50:42.671Z,56.74
2022-09-27T01:51:42.841Z,56.74
2022-09-27T01:52:43.009Z,56.74
2022-09-27T01:53:43.164Z,56.74
2022-09-27T01:54:43.352Z,56.74
2022-09-27T01:55:43.535Z,56.74
2022-09-27T01:56:43.724Z,56.74
2022-09-27T01:57:43.926Z,56.74
2022-09-27T01:58:44.074Z,56.74
2022-09-27T01:59:44.268Z,56.74
2022-09-27T02:00:44.420Z,56.74
2022-09-27T02:01:44.694Z,56.74
2022-09-27T02:02:44.822Z,56.74
2022-09-27T02:03:44.977Z,56.74
2022-09-27T02:04:45.165Z,56.74
2022-09-27T02:05:45.297Z,56.74
2022-09-27T02:06:45.497Z,56.74
2022-09-27T02:07:45.667Z,56.84
2022-09-27T02:08:45.848Z,56.74
2022-09-27T02:09:46.007Z,56.84
2022-09-27T02:10:46.162Z,56.74
2022-09-27T02:11:46.370Z,56.74
2022-09-27T02:12:46.539Z,56.74
2022-09-27T02:13:46.699Z,56.74
2022-09-27T02:14:46.855Z,56.74
2022-09-27T02:15:47.078Z,56.84
2022-09-27T02:16:47.220Z,56.84
2022-09-27T02:17:47.381Z,56.74
2022-09-27T02:18:47.531Z,56.84
2022-09-27T02:19:47.720Z,56.74
2022-09-27T02:20:47.912Z,56.84
2022-09-27T02:21:48.120Z,56.74
2022-09-27T02:22:48.282Z,56.74
2022-09-27T02:23:48.442Z,56.74
2022-09-27T02:24:48.593Z,56.84
2022-09-27T02:25:48.783Z,56.84
2022-09-27T02:26:48.992Z,56.84
2022-09-27T02:27:49.163Z,56.74
2022-09-27T02:28:49.315Z,56.84
2022-09-27T02:29:49.509Z,56.93
2022-09-27T02:30:49.681Z,56.74
2022-09-27T02:31:49.836Z,56.84
2022-09-27T02:32:49.990Z,56.93
2022-09-27T02:33:50.174Z,56.84
2022-09-27T02:34:50.356Z,56.84
2022-09-27T02:35:50.549Z,56.84
2022-09-27T02:36:50.706Z,56.93
2022-09-27T02:37:50.878Z,56.93
2022-09-27T02:38:51.028Z,56.93
2022-09-27T02:39:51.213Z,56.93
2022-09-27T02:40:51.489Z,56.93
2022-09-27T02:41:51.567Z,57.04
2022-09-27T02:42:51.750Z,57.04
2022-09-27T02:43:51.931Z,56.93
2022-09-27T02:44:52.130Z,57.04
2022-09-27T02:45:52.375Z,57.04
2022-09-27T02:46:52.459Z,57.04
2022-09-27T02:47:52.649Z,57.04
2022-09-27T02:48:52.830Z,57.04
2022-09-27T02:49:53.034Z,57.14
2022-09-27T02:50:53.209Z,57.34
2022-09-27T02:51:53.360Z,57.34
2022-09-27T02:52:53.550Z,57.14
2022-09-27T02:53:53.744Z,57.24
2022-09-27T02:54:53.911Z,57.34
2022-09-27T02:55:54.065Z,57.34
2022-09-27T02:56:54.247Z,57.34
2022-09-27T02:57:54.433Z,57.34
2022-09-27T02:58:54.643Z,57.34
2022-09-27T02:59:54.797Z,57.44
2022-09-27T03:00:54.986Z,57.34
2022-09-27T03:01:55.208Z,57.54
2022-09-27T03:02:55.404Z,57.54
2022-09-27T03:03:55.504Z,57.64
2022-09-27T03:04:55.665Z,57.64
2022-09-27T03:05:55.827Z,57.54
2022-09-27T03:06:56.016Z,57.64
2022-09-27T03:07:56.170Z,57.64
2022-09-27T03:08:56.386Z,57.64
2022-09-27T03:09:56.538Z,57.64
2022-09-27T03:10:56.727Z,57.64
2022-09-27T03:11:56.878Z,57.74
2022-09-27T03:12:57.078Z,57.74
2022-09-27T03:14:08.342Z,57.74
2022-09-27T03:14:58.424Z,57.84
2022-09-27T03:16:01.393Z,57.74
2022-09-27T03:16:57.800Z,57.84
2022-09-27T03:17:57.929Z,57.84
2022-09-27T03:18:58.090Z,57.84
2022-09-27T03:19:58.252Z,58.14
2022-09-27T03:20:58.409Z,58.04
2022-09-27T03:21:58.580Z,58.04
2022-09-27T03:22:58.749Z,57.94
2022-09-27T03:23:58.902Z,57.94
2022-09-27T03:24:59.091Z,58.14
2022-09-27T03:25:59.277Z,58.04
2022-09-27T03:26:59.481Z,58.14
2022-09-27T03:27:59.632Z,58.04
2022-09-27T03:28:59.824Z,58.04
2022-09-27T03:29:59.984Z,58.24
2022-09-27T03:31:00.210Z,58.34
2022-09-27T03:32:00.338Z,58.24
2022-09-27T03:33:00.492Z,58.34
2022-09-27T03:34:00.675Z,58.34
2022-09-27T03:35:00.873Z,58.44
2022-09-27T03:36:01.025Z,58.54
2022-09-27T03:37:01.245Z,58.34
2022-09-27T03:38:01.409Z,58.44
2022-09-27T03:39:01.592Z,58.75
2022-09-27T03:40:01.747Z,58.54
2022-09-27T03:41:02.016Z,58.64
2022-09-27T03:42:02.099Z,58.54
2022-09-27T03:43:02.254Z,58.47
2022-09-27T03:44:02.408Z,58.54
2022-09-27T03:45:02.591Z,58.75
2022-09-27T03:46:02.887Z,58.64
2022-09-27T03:47:03.000Z,58.64
2022-09-27T03:48:03.150Z,58.84
2022-09-27T03:49:03.339Z,58.75
2022-09-27T03:50:03.489Z,58.97
2022-09-27T03:51:03.681Z,58.77
2022-09-27T03:52:03.880Z,59.08
2022-09-27T03:53:04.043Z,58.97
2022-09-27T03:54:04.191Z,59.08
2022-09-27T03:55:04.381Z,59.17
2022-09-27T03:56:04.531Z,59.27
2022-09-27T03:57:04.756Z,59.08
2022-09-27T03:58:04.902Z,59.08
2022-09-27T03:59:05.093Z,59.17
2022-09-27T04:00:05.251Z,59.27
2022-09-27T04:01:05.522Z,59.27
2022-09-27T04:02:05.675Z,59.27
2022-09-27T04:03:05.780Z,59.27
2022-09-27T04:04:10.940Z,59.38
2022-09-27T04:05:07.135Z,59.38
2022-09-27T04:06:06.314Z,59.38
2022-09-27T04:07:06.545Z,59.38
2022-09-27T04:08:06.664Z,59.47
2022-09-27T04:09:06.850Z,59.47
2022-09-27T04:10:07.037Z,59.58
2022-09-27T04:11:07.226Z,59.47
2022-09-27T04:12:07.425Z,59.58
2022-09-27T04:13:07.583Z,59.47
2022-09-27T04:14:07.736Z,59.67
2022-09-27T04:15:07.926Z,59.58
2022-09-27T04:16:08.129Z,59.67
2022-09-27T04:17:08.345Z,59.58
2022-09-27T04:18:08.461Z,59.78
2022-09-27T04:19:08.669Z,59.67
2022-09-27T04:20:08.819Z,59.78
2022-09-27T04:21:09.028Z,59.78
2022-09-27T04:22:09.179Z,59.78
2022-09-27T04:23:09.373Z,59.78
2022-09-27T04:24:09.551Z,59.88
2022-09-27T04:25:09.759Z,60.08
2022-09-27T04:26:09.930Z,59.88
2022-09-27T04:27:10.080Z,60.08
2022-09-27T04:28:10.271Z,60.18
2022-09-27T04:29:10.529Z,60.08
2022-09-27T04:30:10.640Z,59.88
2022-09-27T04:31:10.811Z,59.98
2022-09-27T04:32:10.962Z,59.98
2022-09-27T04:33:11.154Z,59.98
2022-09-27T04:34:11.305Z,60.08
2022-09-27T04:35:11.505Z,60.18
2022-09-27T04:36:11.656Z,60.28
2022-09-27T04:37:11.849Z,60.18
2022-09-27T04:38:12.005Z,60.18
2022-09-27T04:39:12.225Z,60.38
2022-09-27T04:40:12.326Z,60.38
2022-09-27T04:41:12.479Z,60.28
2022-09-27T04:42:12.636Z,60.38
2022-09-27T04:43:12.827Z,60.48
2022-09-27T04:44:12.997Z,60.48
2022-09-27T04:45:13.387Z,60.38
2022-09-27T04:46:13.389Z,60.48
2022-09-27T04:47:13.479Z,60.48
2022-09-27T04:48:13.659Z,60.61
2022-09-27T04:49:13.877Z,60.68
2022-09-27T04:50:14.020Z,60.78
2022-09-27T04:51:14.178Z,60.71
2022-09-27T04:52:14.354Z,60.61
2022-09-27T04:53:14.551Z,60.68
2022-09-27T04:54:14.719Z,60.71
2022-09-27T04:55:14.869Z,60.81
2022-09-27T04:56:15.057Z,60.91
2022-09-27T04:57:15.251Z,60.88
2022-09-27T04:58:15.402Z,60.81
2022-09-27T04:59:15.853Z,61.01
2022-09-27T05:00:15.755Z,61.08
2022-09-27T05:01:15.983Z,61.21
2022-09-27T05:02:16.158Z,61.11
2022-09-27T05:03:16.302Z,61.21
2022-09-27T05:04:16.508Z,61.21
2022-09-27T05:05:16.664Z,61.11
2022-09-27T05:06:16.877Z,61.41
2022-09-27T05:07:17.014Z,61.51
2022-09-27T05:08:17.201Z,61.31
2022-09-27T05:09:17.415Z,61.51
2022-09-27T05:10:17.578Z,61.41
2022-09-27T05:11:17.747Z,61.41
2022-09-27T05:12:17.939Z,61.41
2022-09-27T05:13:18.095Z,61.51
2022-09-27T05:14:18.335Z,61.61
2022-09-27T05:15:18.455Z,61.61
2022-09-27T05:16:18.696Z,61.71
2022-09-27T05:17:18.784Z,61.71
2022-09-27T05:18:18.936Z,61.71
2022-09-27T05:19:19.139Z,61.82
2022-09-27T05:20:19.286Z,61.71
2022-09-27T05:21:19.481Z,62.12
2022-09-27T05:22:19.660Z,62.02
2022-09-27T05:23:19.848Z,62.12
2022-09-27T05:24:20.050Z,62.02
2022-09-27T05:25:20.203Z,62.22
2022-09-27T05:26:20.368Z,62.12
2022-09-27T05:27:20.595Z,62.22
2022-09-27T05:28:20.690Z,62.02
2022-09-27T05:29:20.881Z,62.12
2022-09-27T05:30:21.061Z,62.42
2022-09-27T05:31:21.289Z,62.52
2022-09-27T05:32:21.409Z,62.62
2022-09-27T05:33:21.571Z,62.42
2022-09-27T05:34:21.763Z,62.42
2022-09-27T05:35:21.900Z,62.42
2022-09-27T05:36:22.062Z,62.52
2022-09-27T05:37:22.224Z,62.52
2022-09-27T05:38:22.403Z,62.52
2022-09-27T05:39:22.586Z,62.52
2022-09-27T05:40:40.216Z,62.72
2022-09-27T05:41:24.077Z,62.82
2022-09-27T05:42:23.074Z,62.62
2022-09-27T05:43:23.266Z,62.62
2022-09-27T05:44:23.410Z,62.82
2022-09-27T05:45:23.586Z,62.82
2022-09-27T05:46:23.850Z,63.22
2022-09-27T05:47:23.945Z,63.02
2022-09-27T05:48:24.115Z,62.82
2022-09-27T05:49:24.295Z,62.92
2022-09-27T05:50:24.493Z,62.92
2022-09-27T05:51:24.627Z,63.02
2022-09-27T05:52:24.800Z,62.92
2022-09-27T05:53:24.980Z,63.02
2022-09-27T05:54:25.148Z,62.92
2022-09-27T05:55:25.339Z,62.92
2022-09-27T05:56:25.474Z,63.12
2022-09-27T05:57:25.648Z,63.02
2022-09-27T05:58:25.825Z,63.42
2022-09-27T05:59:26.000Z,63.22
2022-09-27T06:00:26.185Z,63.12
2022-09-27T06:01:26.416Z,63.02
2022-09-27T06:02:26.578Z,63.32
2022-09-27T06:03:26.672Z,63.02
2022-09-27T06:04:26.857Z,63.02
2022-09-27T06:05:27.051Z,62.92
2022-09-27T06:06:27.201Z,63.02
2022-09-27T06:07:27.379Z,63.22
2022-09-27T06:08:27.551Z,63.12
2022-09-27T06:09:27.723Z,63.12
2022-09-27T06:10:27.978Z,63.12
2022-09-27T06:11:28.084Z,63.12
2022-09-27T06:12:28.224Z,63.22
2022-09-27T06:13:28.415Z,63.02
2022-09-27T06:14:28.590Z,63.32
2022-09-27T06:15:28.779Z,64.43
2022-09-27T06:16:28.943Z,67.94
2022-09-27T06:17:29.104Z,68.25
2022-09-27T06:18:29.277Z,67.74
2022-09-27T06:19:29.450Z,67.65
2022-09-27T06:20:29.636Z,67.35
2022-09-27T06:21:29.811Z,67.24
2022-09-27T06:22:29.986Z,67.04
2022-09-27T06:23:30.167Z,66.81
2022-09-27T06:24:30.352Z,66.91
2022-09-27T06:25:30.537Z,66.91
2022-09-27T06:26:30.668Z,66.61
2022-09-27T06:27:30.838Z,66.51
2022-09-27T06:28:31.014Z,66.31
2022-09-27T06:29:31.187Z,66.31
2022-09-27T06:30:31.413Z,66.20
2022-09-27T06:31:31.552Z,66.20
2022-09-27T06:32:31.709Z,66.00
2022-09-27T06:33:31.889Z,66.11
2022-09-27T06:34:32.074Z,66.00
2022-09-27T06:35:32.252Z,66.11
2022-09-27T06:36:32.422Z,65.97
2022-09-27T06:37:32.592Z,65.88
2022-09-27T06:38:32.884Z,65.77
2022-09-27T06:39:32.951Z,65.88
2022-09-27T06:40:33.115Z,65.67
2022-09-27T06:41:33.297Z,65.57
2022-09-27T06:42:33.475Z,65.37
2022-09-27T06:43:33.677Z,65.47
2022-09-27T06:44:33.818Z,65.47
2022-09-27T06:45:33.985Z,65.47
2022-09-27T06:46:34.169Z,65.47
2022-09-27T06:47:34.354Z,65.37
2022-09-27T06:48:34.565Z,65.37
2022-09-27T06:49:34.725Z,65.37
2022-09-27T06:50:34.913Z,65.27
2022-09-27T06:51:35.075Z,65.34
2022-09-27T06:52:35.259Z,65.24
2022-09-27T06:53:35.426Z,65.14
2022-09-27T06:54:35.612Z,65.04
2022-09-27T06:55:35.775Z,65.04
2022-09-27T06:56:35.931Z,64.94
2022-09-27T06:57:36.123Z,64.94
2022-09-27T06:58:36.307Z,64.94
2022-09-27T06:59:36.507Z,64.84
2022-09-27T07:00:36.667Z,64.94
2022-09-27T07:01:36.963Z,65.04
2022-09-27T07:02:36.999Z,65.14
2022-09-27T07:03:40.907Z,65.21
2022-09-27T07:04:37.350Z,65.21
2022-09-27T07:05:37.501Z,65.21
2022-09-27T07:06:37.696Z,65.21
2022-09-27T07:07:37.870Z,65.31
2022-09-27T07:08:38.070Z,65.11
2022-09-27T07:09:38.251Z,65.11
2022-09-27T07:10:38.404Z,65.21
2022-09-27T07:11:38.585Z,65.41
2022-09-27T07:12:38.765Z,65.41
2022-09-27T07:13:38.954Z,65.21
2022-09-27T07:14:39.148Z,65.21
2022-09-27T07:15:39.321Z,65.11
2022-09-27T07:16:39.542Z,65.31
2022-09-27T07:17:39.684Z,65.18
2022-09-27T07:18:39.884Z,65.11
2022-09-27T07:19:40.071Z,65.08
2022-09-27T07:20:40.227Z,65.18
2022-09-27T07:21:40.391Z,65.08
2022-09-27T07:22:40.575Z,65.08
2022-09-27T07:23:40.784Z,65.08
2022-09-27T07:24:40.979Z,64.98
2022-09-27T07:25:41.100Z,64.88
2022-09-27T07:26:41.276Z,64.88
2022-09-27T07:27:41.440Z,64.68
2022-09-27T07:28:41.619Z,64.78
2022-09-27T07:29:41.787Z,64.98
2022-09-27T07:30:41.965Z,64.98
2022-09-27T07:31:42.117Z,65.08
2022-09-27T07:32:42.276Z,64.78
2022-09-27T07:33:43.588Z,64.07
2022-09-27T07:34:42.667Z,63.67
2022-09-27T07:35:42.812Z,63.67
2022-09-27T07:36:42.969Z,63.57
2022-09-27T07:37:43.149Z,63.57
2022-09-27T07:38:43.370Z,63.28
2022-09-27T07:39:43.510Z,63.28
2022-09-27T07:40:43.733Z,63.28
2022-09-27T07:41:43.894Z,63.17
2022-09-27T07:42:44.038Z,63.07
2022-09-27T07:43:44.191Z,63.17
2022-09-27T07:44:44.366Z,63.07
2022-09-27T07:45:44.598Z,63.07
2022-09-27T07:46:44.733Z,62.97
2022-09-27T07:47:44.915Z,62.87
2022-09-27T07:48:45.117Z,62.97
2022-09-27T07:49:45.284Z,63.07
2022-09-27T07:50:45.473Z,63.07
2022-09-27T07:51:45.654Z,62.87
2022-09-27T07:52:45.848Z,62.87
2022-09-27T07:53:46.019Z,62.87
2022-09-27T07:54:46.184Z,62.77
2022-09-27T07:55:46.358Z,62.77
2022-09-27T07:56:46.544Z,62.77
2022-09-27T07:57:46.725Z,62.87
2022-09-27T07:58:46.926Z,62.97
2022-09-27T07:59:47.097Z,63.07
2022-09-27T08:00:47.340Z,62.97
2022-09-27T08:01:47.456Z,62.87
2022-09-27T08:02:47.638Z,62.97
2022-09-27T08:03:47.838Z,62.97
2022-09-27T08:04:48.009Z,63.07
2022-09-27T08:05:48.191Z,62.97
2022-09-27T08:06:48.367Z,62.97
2022-09-27T08:07:48.528Z,63.07
2022-09-27T08:08:48.706Z,63.07
2022-09-27T08:09:48.869Z,63.07
2022-09-27T08:10:49.063Z,63.17
2022-09-27T08:11:49.220Z,63.17
2022-09-27T08:12:49.379Z,63.07
2022-09-27T08:13:49.600Z,63.17
2022-09-27T08:14:49.815Z,62.97
2022-09-27T08:15:49.910Z,63.10
2022-09-27T08:16:50.129Z,63.07
2022-09-27T08:17:50.253Z,62.97
2022-09-27T08:18:50.461Z,63.07
2022-09-27T08:19:50.594Z,63.10
2022-09-27T08:20:50.772Z,63.00
2022-09-27T08:21:53.508Z,63.20
2022-09-27T08:22:52.123Z,63.31
2022-09-27T08:23:51.314Z,63.10
2022-09-27T08:24:51.464Z,63.00
2022-09-27T08:25:51.645Z,63.10
2022-09-27T08:26:51.852Z,62.90
2022-09-27T08:27:51.987Z,63.10
2022-09-27T08:28:52.172Z,63.00
2022-09-27T08:29:52.346Z,62.80
2022-09-27T08:30:52.511Z,63.00
2022-09-27T08:31:52.752Z,62.90
2022-09-27T08:32:52.851Z,63.10
2022-09-27T08:33:53.019Z,63.20
2022-09-27T08:34:53.226Z,63.31
2022-09-27T08:35:53.358Z,63.31
2022-09-27T08:36:53.544Z,63.31
2022-09-27T08:37:53.717Z,63.31
2022-09-27T08:38:53.918Z,63.31
2022-09-27T08:39:54.059Z,63.40
2022-09-27T08:40:54.265Z,63.50
2022-09-27T08:41:54.421Z,63.37
2022-09-27T08:42:54.640Z,63.20
2022-09-27T08:43:54.778Z,63.28
2022-09-27T08:44:54.960Z,63.28
2022-09-27T08:45:55.174Z,63.40
2022-09-27T08:46:55.331Z,63.60
2022-09-27T08:47:55.522Z,63.60
2022-09-27T08:48:55.677Z,63.57
2022-09-27T08:49:55.851Z,63.67
2022-09-27T08:50:56.039Z,63.70
2022-09-27T08:51:56.221Z,63.78
2022-09-27T08:52:56.421Z,63.67
2022-09-27T08:53:56.583Z,63.57
2022-09-27T08:54:56.762Z,63.60
2022-09-27T08:55:56.952Z,63.57
2022-09-27T08:56:57.143Z,63.57
2022-09-27T08:57:57.294Z,63.67
2022-09-27T08:58:57.445Z,63.57
2022-09-27T08:59:57.628Z,63.37
2022-09-27T09:00:57.843Z,63.57
2022-09-27T09:01:58.030Z,63.57
2022-09-27T09:02:58.197Z,63.57
2022-09-27T09:03:58.338Z,63.57
2022-09-27T09:04:58.520Z,63.57
2022-09-27T09:05:58.698Z,63.47
2022-09-27T09:06:58.887Z,63.47
2022-09-27T09:07:59.077Z,63.47
2022-09-27T09:08:59.252Z,63.67
2022-09-27T09:09:59.439Z,63.57
2022-09-27T09:10:59.618Z,63.47
2022-09-27T09:11:59.801Z,63.47
2022-09-27T09:12:59.998Z,63.47
2022-09-27T09:14:00.158Z,63.47
2022-09-27T09:15:00.350Z,63.47
2022-09-27T09:16:00.528Z,63.47
2022-09-27T09:17:00.730Z,63.37
2022-09-27T09:18:00.882Z,63.37
2022-09-27T09:19:01.049Z,63.28
2022-09-27T09:20:01.220Z,63.47
2022-09-27T09:21:01.409Z,63.47
2022-09-27T09:22:01.591Z,63.37
2022-09-27T09:23:01.791Z,63.37
2022-09-27T09:24:01.927Z,63.37
2022-09-27T09:25:02.102Z,63.37
2022-09-27T09:26:02.284Z,63.47
2022-09-27T09:27:02.478Z,63.57
2022-09-27T09:28:02.883Z,63.47
2022-09-27T09:29:02.793Z,63.47
2022-09-27T09:30:02.974Z,63.47
2022-09-27T09:31:03.155Z,63.37
2022-09-27T09:32:03.393Z,63.37
2022-09-27T09:33:03.545Z,63.34
2022-09-27T09:34:03.678Z,63.37
2022-09-27T09:35:03.844Z,63.34
2022-09-27T09:36:05.016Z,63.37
2022-09-27T09:37:04.208Z,63.47
2022-09-27T09:38:04.406Z,63.47
2022-09-27T09:39:04.584Z,63.37
2022-09-27T09:40:08.920Z,63.28
2022-09-27T09:41:04.931Z,63.47
2022-09-27T09:42:05.111Z,63.37
2022-09-27T09:43:05.311Z,63.37
2022-09-27T09:44:05.481Z,63.34
2022-09-27T09:45:05.659Z,63.47
2022-09-27T09:46:05.876Z,63.34
2022-09-27T09:47:06.028Z,63.34
2022-09-27T09:48:06.229Z,63.34
2022-09-27T09:49:06.404Z,63.34
2022-09-27T09:50:06.581Z,63.34
2022-09-27T09:51:06.770Z,63.34
2022-09-27T09:52:09.186Z,63.34
2022-09-27T09:53:07.112Z,63.34
2022-09-27T09:54:07.290Z,63.34
2022-09-27T09:55:07.491Z,63.24
2022-09-27T09:56:07.663Z,63.34
2022-09-27T09:57:07.815Z,63.34
2022-09-27T09:58:07.994Z,63.24
2022-09-27T09:59:08.163Z,63.21
2022-09-27T10:00:08.337Z,63.11
2022-09-27T10:01:08.549Z,63.11
2022-09-27T10:02:08.720Z,63.01
2022-09-27T10:03:08.885Z,63.01
2022-09-27T10:04:09.097Z,62.92
2022-09-27T10:05:09.234Z,62.92
2022-09-27T10:06:09.424Z,62.81
2022-09-27T10:07:09.577Z,62.92
2022-09-27T10:08:09.760Z,62.81
2022-09-27T10:09:09.943Z,62.68
2022-09-27T10:10:10.129Z,62.68
2022-09-27T10:11:10.319Z,62.68
2022-09-27T10:12:10.464Z,62.68
2022-09-27T10:13:10.646Z,62.78
2022-09-27T10:14:10.871Z,62.78
2022-09-27T10:15:10.998Z,62.68
2022-09-27T10:16:11.223Z,62.71
2022-09-27T10:17:11.308Z,62.58
2022-09-27T10:18:11.489Z,62.58
2022-09-27T10:19:11.702Z,62.58
2022-09-27T10:20:11.841Z,62.58
2022-09-27T10:21:12.031Z,62.58
2022-09-27T10:22:12.210Z,62.58
2022-09-27T10:23:12.392Z,62.51
2022-09-27T10:24:17.705Z,62.51
2022-09-27T10:25:13.770Z,62.51
2022-09-27T10:26:12.911Z,62.61
2022-09-27T10:27:13.091Z,62.61
2022-09-27T10:28:13.272Z,62.51
2022-09-27T10:29:13.453Z,62.51
2022-09-27T10:30:13.652Z,62.61
2022-09-27T10:31:13.937Z,62.61
2022-09-27T10:32:13.983Z,62.51
2022-09-27T10:33:14.168Z,62.61
2022-09-27T10:34:14.349Z,62.61
2022-09-27T10:35:14.534Z,62.71
2022-09-27T10:36:14.703Z,62.71
2022-09-27T10:37:14.887Z,62.81
2022-09-27T10:38:15.083Z,63.11
2022-09-27T10:39:15.246Z,63.21
2022-09-27T10:40:15.429Z,63.18
2022-09-27T10:41:15.586Z,63.18
2022-09-27T10:42:15.746Z,63.18
2022-09-27T10:43:15.946Z,63.78
2022-09-27T10:44:16.260Z,63.58
2022-09-27T10:45:16.276Z,63.58
2022-09-27T10:46:16.460Z,63.28
2022-09-27T10:47:16.642Z,63.08
2022-09-27T10:48:16.839Z,62.98
2022-09-27T10:49:16.989Z,63.28
2022-09-27T10:50:38.761Z,63.48
2022-09-27T10:51:18.329Z,63.48
2022-09-27T10:52:17.537Z,63.48
2022-09-27T10:53:17.699Z,63.48
2022-09-27T10:54:17.889Z,63.58
2022-09-27T10:55:18.081Z,63.68
2022-09-27T10:56:18.250Z,63.78
2022-09-27T10:57:18.422Z,63.78
2022-09-27T10:58:18.615Z,63.78
2022-09-27T10:59:18.772Z,63.78
2022-09-27T11:00:18.972Z,63.89
2022-09-27T11:01:19.147Z,63.98
2022-09-27T11:02:19.293Z,63.89
2022-09-27T11:03:19.454Z,63.78
2022-09-27T11:04:19.660Z,63.68
2022-09-27T11:05:19.788Z,63.58
2022-09-27T11:06:19.974Z,63.68
2022-09-27T11:07:20.178Z,63.89
2022-09-27T11:08:20.354Z,63.68
2022-09-27T11:09:20.526Z,63.39
2022-09-27T11:10:20.706Z,64.28
2022-09-27T11:11:20.876Z,64.09
2022-09-27T11:12:21.025Z,63.98
2022-09-27T11:13:21.203Z,63.81
2022-09-27T11:14:21.377Z,63.71
2022-09-27T11:15:21.537Z,63.71
2022-09-27T11:16:21.772Z,63.61
2022-09-27T11:17:21.907Z,63.51
2022-09-27T11:18:22.093Z,63.42
2022-09-27T11:19:22.288Z,63.42
2022-09-27T11:20:22.462Z,63.51
2022-09-27T11:21:22.639Z,63.51
2022-09-27T11:22:22.819Z,63.51
2022-09-27T11:23:22.999Z,63.64
2022-09-27T11:24:23.198Z,63.54
2022-09-27T11:25:23.359Z,63.64
2022-09-27T11:26:23.503Z,63.75
2022-09-27T11:27:23.678Z,63.84
2022-09-27T11:28:23.861Z,63.95
2022-09-27T11:29:24.061Z,64.04
2022-09-27T11:30:24.232Z,64.04
2022-09-27T11:31:24.456Z,64.15
2022-09-27T11:32:24.603Z,64.25
2022-09-27T11:33:24.783Z,64.04
2022-09-27T11:34:24.984Z,64.25
2022-09-27T11:35:25.122Z,64.34
2022-09-27T11:36:25.305Z,64.15
2022-09-27T11:37:25.485Z,64.54
2022-09-27T11:38:51.167Z,64.54
2022-09-27T11:39:26.853Z,64.75
2022-09-27T11:40:26.043Z,65.05
2022-09-27T11:41:26.165Z,65.18
2022-09-27T11:42:26.345Z,65.38
2022-09-27T11:43:26.525Z,65.58
2022-09-27T11:44:26.735Z,65.38
2022-09-27T11:45:41.194Z,65.28
2022-09-27T11:46:37.169Z,65.78
2022-09-27T11:47:28.304Z,65.98
2022-09-27T11:48:27.408Z,65.88
2022-09-27T11:49:27.637Z,66.08
2022-09-27T11:50:27.776Z,66.38
2022-09-27T11:51:27.956Z,66.18
2022-09-27T11:52:28.139Z,65.88
2022-09-27T11:53:28.319Z,65.88
2022-09-27T11:54:28.529Z,65.88
2022-09-27T11:55:28.663Z,65.68
2022-09-27T11:56:28.839Z,65.68
2022-09-27T11:57:29.020Z,65.68
2022-09-27T11:58:29.210Z,65.58
2022-09-27T11:59:29.360Z,65.55
2022-09-27T12:00:29.522Z,65.58
2022-09-27T12:01:29.700Z,65.55
2022-09-27T12:02:30.038Z,65.45
2022-09-27T12:03:30.060Z,65.55
2022-09-27T12:04:30.233Z,65.55
2022-09-27T12:05:30.413Z,65.65
2022-09-27T12:06:30.606Z,65.45
2022-09-27T12:07:30.773Z,65.45
2022-09-27T12:08:30.954Z,65.45
2022-09-27T12:09:31.133Z,64.95
2022-09-27T12:10:31.321Z,64.84
2022-09-27T12:11:31.668Z,64.75
2022-09-27T12:12:31.683Z,64.84
2022-09-27T12:13:31.874Z,64.84
2022-09-27T12:14:32.054Z,66.15
2022-09-27T12:15:32.295Z,66.65
2022-09-27T12:16:32.436Z,66.95
2022-09-27T12:17:32.605Z,66.85
2022-09-27T12:18:32.786Z,66.95
2022-09-27T12:19:32.955Z,66.95
2022-09-27T12:20:33.163Z,66.92
2022-09-27T12:21:33.297Z,66.92
2022-09-27T12:22:57.043Z,66.52
2022-09-27T12:23:36.611Z,66.52
2022-09-27T12:24:33.843Z,66.36
2022-09-27T12:25:34.009Z,65.39
2022-09-27T12:26:34.188Z,63.70
2022-09-27T12:27:34.359Z,62.94
2022-09-27T12:28:34.549Z,61.79
2022-09-27T12:29:34.738Z,60.83
2022-09-27T12:30:34.902Z,60.47
2022-09-27T12:31:35.154Z,60.64
2022-09-27T12:32:35.252Z,61.27
2022-09-27T12:33:35.430Z,61.50
2022-09-27T12:34:35.682Z,61.53
2022-09-27T12:35:35.749Z,61.23
2022-09-27T12:36:38.429Z,60.76
2022-09-27T12:37:36.102Z,60.66
2022-09-27T12:38:36.312Z,60.66
2022-09-27T12:39:36.443Z,59.89
2022-09-27T12:40:36.649Z,59.89
2022-09-27T12:41:36.814Z,58.89
2022-09-27T12:42:37.002Z,59.39
2022-09-27T12:43:37.194Z,60.39
2022-09-27T12:44:37.375Z,59.99
2022-09-27T12:45:37.554Z,60.29
2022-09-27T12:46:37.803Z,60.59
2022-09-27T12:47:37.895Z,60.99
2022-09-27T12:48:38.107Z,61.49
2022-09-27T12:49:38.238Z,61.41
2022-09-27T12:50:38.476Z,60.62
2022-09-27T12:51:38.581Z,59.62
2022-09-27T12:52:38.778Z,61.02
2022-09-27T12:53:38.959Z,60.82
2022-09-27T12:54:39.108Z,60.72